sensor_id;sensor_type;location;lat;lon;timestamp;P1;durP1;ratioP1;P2;durP2;ratioP2
43088;SDS011;28709;52.030;5.652;2023-04-24T00:00:15;3.15;;;2.45;;
43088;SDS011;28709;52.030;5.652;2023-04-24T00:02:42;6.53;;;2.78;;
43088;SDS011;28709;52.030;5.652;2023-04-24T00:05:12;3.22;;;2.50;;
43088;SDS011;28709;52.030;5.652;2023-04-24T00:07:43;4.60;;;2.88;;
43088;SDS011;28709;52.030;5.652;2023-04-24T00:10:10;5.32;;;2.20;;
43088;SDS011;28709;52.030;5.652;2023-04-24T00:12:36;3.47;;;2.75;;
43088;SDS011;28709;52.030;5.652;2023-04-24T00:15:02;4.70;;;2.17;;
43088;SDS011;28709;52.030;5.652;2023-04-24T00:17:28;7.57;;;3.10;;
43088;SDS011;28709;52.030;5.652;2023-04-24T00:19:54;3.47;;;2.40;;
43088;SDS011;28709;52.030;5.652;2023-04-24T00:22:27;4.13;;;2.45;;
43088;SDS011;28709;52.030;5.652;2023-04-24T00:24:53;3.75;;;2.70;;
43088;SDS011;28709;52.030;5.652;2023-04-24T00:27:19;5.32;;;2.38;;
43088;SDS011;28709;52.030;5.652;2023-04-24T00:29:45;3.33;;;2.58;;
43088;SDS011;28709;52.030;5.652;2023-04-24T00:32:11;5.85;;;2.88;;
43088;SDS011;28709;52.030;5.652;2023-04-24T00:34:36;5.15;;;2.55;;
43088;SDS011;28709;52.030;5.652;2023-04-24T00:37:02;2.72;;;2.33;;
43088;SDS011;28709;52.030;5.652;2023-04-24T00:39:28;2.55;;;1.90;;
43088;SDS011;28709;52.030;5.652;2023-04-24T00:41:53;3.70;;;2.40;;
43088;SDS011;28709;52.030;5.652;2023-04-24T00:44:20;3.85;;;2.70;;
43088;SDS011;28709;52.030;5.652;2023-04-24T00:46:46;4.05;;;2.40;;
43088;SDS011;28709;52.030;5.652;2023-04-24T00:49:12;4.05;;;1.90;;
43088;SDS011;28709;52.030;5.652;2023-04-24T00:51:38;3.10;;;2.33;;
43088;SDS011;28709;52.030;5.652;2023-04-24T00:54:05;2.47;;;2.10;;
43088;SDS011;28709;52.030;5.652;2023-04-24T00:56:31;1.90;;;1.60;;
43088;SDS011;28709;52.030;5.652;2023-04-24T00:58:57;5.15;;;1.70;;
43088;SDS011;28709;52.030;5.652;2023-04-24T01:01:23;2.17;;;1.52;;
43088;SDS011;28709;52.030;5.652;2023-04-24T01:03:49;1.95;;;1.40;;
43088;SDS011;28709;52.030;5.652;2023-04-24T01:06:18;3.70;;;1.77;;
43088;SDS011;28709;52.030;5.652;2023-04-24T01:08:45;1.77;;;1.63;;
43088;SDS011;28709;52.030;5.652;2023-04-24T01:11:12;1.25;;;1.15;;
43088;SDS011;28709;52.030;5.652;2023-04-24T01:13:38;2.65;;;1.02;;
43088;SDS011;28709;52.030;5.652;2023-04-24T01:16:05;2.35;;;0.70;;
43088;SDS011;28709;52.030;5.652;2023-04-24T01:18:31;0.73;;;0.70;;
43088;SDS011;28709;52.030;5.652;2023-04-24T01:20:57;1.67;;;0.70;;
43088;SDS011;28709;52.030;5.652;2023-04-24T01:23:24;1.08;;;0.60;;
43088;SDS011;28709;52.030;5.652;2023-04-24T01:25:50;0.40;;;0.40;;
43088;SDS011;28709;52.030;5.652;2023-04-24T01:28:16;0.75;;;0.60;;
43088;SDS011;28709;52.030;5.652;2023-04-24T01:30:42;0.50;;;0.50;;
43088;SDS011;28709;52.030;5.652;2023-04-24T01:33:08;0.50;;;0.50;;
43088;SDS011;28709;52.030;5.652;2023-04-24T01:35:35;0.60;;;0.60;;
43088;SDS011;28709;52.030;5.652;2023-04-24T01:38:02;0.75;;;0.75;;
43088;SDS011;28709;52.030;5.652;2023-04-24T01:40:28;2.35;;;1.23;;
43088;SDS011;28709;52.030;5.652;2023-04-24T01:42:53;1.10;;;1.00;;
43088;SDS011;28709;52.030;5.652;2023-04-24T01:45:20;2.22;;;1.20;;
43088;SDS011;28709;52.030;5.652;2023-04-24T01:47:45;1.00;;;1.00;;
43088;SDS011;28709;52.030;5.652;2023-04-24T01:50:11;1.30;;;1.02;;
43088;SDS011;28709;52.030;5.652;2023-04-24T01:52:37;2.95;;;1.25;;
43088;SDS011;28709;52.030;5.652;2023-04-24T01:55:03;1.65;;;1.30;;
43088;SDS011;28709;52.030;5.652;2023-04-24T01:57:30;0.88;;;0.80;;
43088;SDS011;28709;52.030;5.652;2023-04-24T01:59:56;0.90;;;0.90;;
43088;SDS011;28709;52.030;5.652;2023-04-24T02:02:22;1.05;;;0.80;;
43088;SDS011;28709;52.030;5.652;2023-04-24T02:04:55;1.65;;;1.05;;
43088;SDS011;28709;52.030;5.652;2023-04-24T02:07:22;2.55;;;1.35;;
43088;SDS011;28709;52.030;5.652;2023-04-24T02:09:47;2.13;;;1.35;;
43088;SDS011;28709;52.030;5.652;2023-04-24T02:12:14;1.85;;;1.42;;
43088;SDS011;28709;52.030;5.652;2023-04-24T02:14:40;2.50;;;1.85;;
43088;SDS011;28709;52.030;5.652;2023-04-24T02:17:07;3.35;;;2.15;;
43088;SDS011;28709;52.030;5.652;2023-04-24T02:19:33;2.85;;;1.90;;
43088;SDS011;28709;52.030;5.652;2023-04-24T02:21:58;2.60;;;2.40;;
43088;SDS011;28709;52.030;5.652;2023-04-24T02:24:24;5.03;;;2.78;;
43088;SDS011;28709;52.030;5.652;2023-04-24T02:26:50;3.45;;;2.85;;
43088;SDS011;28709;52.030;5.652;2023-04-24T02:29:15;3.50;;;2.92;;
43088;SDS011;28709;52.030;5.652;2023-04-24T02:31:41;5.28;;;3.72;;
43088;SDS011;28709;52.030;5.652;2023-04-24T02:34:06;6.50;;;3.90;;
43088;SDS011;28709;52.030;5.652;2023-04-24T02:36:32;4.60;;;3.90;;
43088;SDS011;28709;52.030;5.652;2023-04-24T02:38:58;5.43;;;4.05;;
43088;SDS011;28709;52.030;5.652;2023-04-24T02:41:24;7.32;;;4.53;;
43088;SDS011;28709;52.030;5.652;2023-04-24T02:43:50;5.00;;;3.95;;
43088;SDS011;28709;52.030;5.652;2023-04-24T02:46:15;4.78;;;3.97;;
43088;SDS011;28709;52.030;5.652;2023-04-24T02:48:41;7.57;;;5.05;;
43088;SDS011;28709;52.030;5.652;2023-04-24T02:51:07;6.55;;;5.28;;
43088;SDS011;28709;52.030;5.652;2023-04-24T02:53:32;6.75;;;5.40;;
43088;SDS011;28709;52.030;5.652;2023-04-24T02:55:58;5.85;;;5.20;;
43088;SDS011;28709;52.030;5.652;2023-04-24T02:58:24;7.55;;;5.60;;
43088;SDS011;28709;52.030;5.652;2023-04-24T03:00:52;8.52;;;5.90;;
43088;SDS011;28709;52.030;5.652;2023-04-24T03:03:20;12.18;;;6.85;;
43088;SDS011;28709;52.030;5.652;2023-04-24T03:05:46;8.60;;;6.72;;
43088;SDS011;28709;52.030;5.652;2023-04-24T03:08:12;8.07;;;5.65;;
43088;SDS011;28709;52.030;5.652;2023-04-24T03:10:37;7.43;;;5.72;;
43088;SDS011;28709;52.030;5.652;2023-04-24T03:13:03;7.90;;;6.10;;
43088;SDS011;28709;52.030;5.652;2023-04-24T03:15:29;6.80;;;5.45;;
43088;SDS011;28709;52.030;5.652;2023-04-24T03:17:54;6.95;;;5.30;;
43088;SDS011;28709;52.030;5.652;2023-04-24T03:20:20;7.07;;;5.13;;
43088;SDS011;28709;52.030;5.652;2023-04-24T03:22:46;6.97;;;5.55;;
43088;SDS011;28709;52.030;5.652;2023-04-24T03:25:12;7.82;;;5.78;;
43088;SDS011;28709;52.030;5.652;2023-04-24T03:27:37;8.23;;;5.60;;
43088;SDS011;28709;52.030;5.652;2023-04-24T03:30:04;6.78;;;5.57;;
43088;SDS011;28709;52.030;5.652;2023-04-24T03:32:31;5.07;;;4.55;;
43088;SDS011;28709;52.030;5.652;2023-04-24T03:34:57;12.05;;;7.60;;
43088;SDS011;28709;52.030;5.652;2023-04-24T03:37:22;9.60;;;7.68;;
43088;SDS011;28709;52.030;5.652;2023-04-24T03:39:48;8.55;;;7.10;;
43088;SDS011;28709;52.030;5.652;2023-04-24T03:42:14;11.52;;;8.02;;
43088;SDS011;28709;52.030;5.652;2023-04-24T03:44:40;12.82;;;8.88;;
43088;SDS011;28709;52.030;5.652;2023-04-24T03:47:05;12.43;;;9.15;;
43088;SDS011;28709;52.030;5.652;2023-04-24T03:49:31;12.32;;;9.80;;
43088;SDS011;28709;52.030;5.652;2023-04-24T03:51:57;17.08;;;10.63;;
43088;SDS011;28709;52.030;5.652;2023-04-24T03:54:22;17.10;;;10.68;;
43088;SDS011;28709;52.030;5.652;2023-04-24T03:56:48;12.82;;;9.90;;
43088;SDS011;28709;52.030;5.652;2023-04-24T03:59:14;15.00;;;11.48;;
43088;SDS011;28709;52.030;5.652;2023-04-24T04:01:39;16.55;;;12.10;;
43088;SDS011;28709;52.030;5.652;2023-04-24T04:04:08;15.02;;;11.70;;
43088;SDS011;28709;52.030;5.652;2023-04-24T04:06:33;20.35;;;12.63;;
43088;SDS011;28709;52.030;5.652;2023-04-24T04:09:01;17.83;;;12.88;;
43088;SDS011;28709;52.030;5.652;2023-04-24T04:11:27;21.40;;;14.73;;
43088;SDS011;28709;52.030;5.652;2023-04-24T04:13:52;21.08;;;14.70;;
43088;SDS011;28709;52.030;5.652;2023-04-24T04:16:18;24.88;;;15.45;;
43088;SDS011;28709;52.030;5.652;2023-04-24T04:18:44;23.77;;;15.50;;
43088;SDS011;28709;52.030;5.652;2023-04-24T04:21:10;23.83;;;15.40;;
43088;SDS011;28709;52.030;5.652;2023-04-24T04:23:36;24.63;;;16.30;;
43088;SDS011;28709;52.030;5.652;2023-04-24T04:26:02;23.00;;;16.02;;
43088;SDS011;28709;52.030;5.652;2023-04-24T04:28:28;20.50;;;15.18;;
43088;SDS011;28709;52.030;5.652;2023-04-24T04:30:55;24.45;;;14.38;;
43088;SDS011;28709;52.030;5.652;2023-04-24T04:33:22;20.80;;;14.30;;
43088;SDS011;28709;52.030;5.652;2023-04-24T04:35:49;19.02;;;12.60;;
43088;SDS011;28709;52.030;5.652;2023-04-24T04:38:17;15.65;;;11.95;;
43088;SDS011;28709;52.030;5.652;2023-04-24T04:40:43;14.10;;;10.38;;
43088;SDS011;28709;52.030;5.652;2023-04-24T04:43:10;16.73;;;10.43;;
43088;SDS011;28709;52.030;5.652;2023-04-24T04:45:36;11.48;;;9.27;;
43088;SDS011;28709;52.030;5.652;2023-04-24T04:48:04;10.82;;;8.23;;
43088;SDS011;28709;52.030;5.652;2023-04-24T04:50:32;12.50;;;9.05;;
43088;SDS011;28709;52.030;5.652;2023-04-24T04:52:58;12.68;;;8.50;;
43088;SDS011;28709;52.030;5.652;2023-04-24T04:55:23;12.30;;;8.48;;
43088;SDS011;28709;52.030;5.652;2023-04-24T04:57:50;12.27;;;8.55;;
43088;SDS011;28709;52.030;5.652;2023-04-24T05:00:16;8.80;;;7.20;;
43088;SDS011;28709;52.030;5.652;2023-04-24T05:02:43;8.10;;;6.28;;
43088;SDS011;28709;52.030;5.652;2023-04-24T05:05:08;11.52;;;6.95;;
43088;SDS011;28709;52.030;5.652;2023-04-24T05:07:34;8.98;;;6.68;;
43088;SDS011;28709;52.030;5.652;2023-04-24T05:10:00;8.10;;;5.55;;
43088;SDS011;28709;52.030;5.652;2023-04-24T05:12:26;6.38;;;5.35;;
43088;SDS011;28709;52.030;5.652;2023-04-24T05:14:52;6.28;;;5.43;;
43088;SDS011;28709;52.030;5.652;2023-04-24T05:17:17;7.85;;;6.10;;
43088;SDS011;28709;52.030;5.652;2023-04-24T05:19:43;8.40;;;5.07;;
43088;SDS011;28709;52.030;5.652;2023-04-24T05:22:09;7.28;;;5.43;;
43088;SDS011;28709;52.030;5.652;2023-04-24T05:24:36;11.88;;;7.18;;
43088;SDS011;28709;52.030;5.652;2023-04-24T05:27:02;7.65;;;4.60;;
43088;SDS011;28709;52.030;5.652;2023-04-24T05:29:29;9.90;;;5.78;;
43088;SDS011;28709;52.030;5.652;2023-04-24T05:31:58;7.20;;;4.72;;
43088;SDS011;28709;52.030;5.652;2023-04-24T05:34:25;5.78;;;3.38;;
43088;SDS011;28709;52.030;5.652;2023-04-24T05:36:51;4.80;;;3.20;;
43088;SDS011;28709;52.030;5.652;2023-04-24T05:39:17;4.18;;;3.30;;
43088;SDS011;28709;52.030;5.652;2023-04-24T05:41:42;3.40;;;2.63;;
43088;SDS011;28709;52.030;5.652;2023-04-24T05:44:08;3.83;;;2.80;;
43088;SDS011;28709;52.030;5.652;2023-04-24T05:46:34;3.88;;;2.75;;
43088;SDS011;28709;52.030;5.652;2023-04-24T05:49:00;3.40;;;2.67;;
43088;SDS011;28709;52.030;5.652;2023-04-24T05:51:26;3.25;;;2.47;;
43088;SDS011;28709;52.030;5.652;2023-04-24T05:53:51;3.50;;;2.42;;
43088;SDS011;28709;52.030;5.652;2023-04-24T05:56:17;3.50;;;2.40;;
43088;SDS011;28709;52.030;5.652;2023-04-24T05:58:43;3.63;;;2.63;;
43088;SDS011;28709;52.030;5.652;2023-04-24T06:01:10;3.03;;;1.85;;
43088;SDS011;28709;52.030;5.652;2023-04-24T06:03:37;6.82;;;1.90;;
43088;SDS011;28709;52.030;5.652;2023-04-24T06:06:04;2.45;;;1.90;;
43088;SDS011;28709;52.030;5.652;2023-04-24T06:08:31;3.05;;;2.42;;
43088;SDS011;28709;52.030;5.652;2023-04-24T06:10:56;3.83;;;2.85;;
43088;SDS011;28709;52.030;5.652;2023-04-24T06:13:22;6.18;;;3.15;;
43088;SDS011;28709;52.030;5.652;2023-04-24T06:15:48;3.95;;;3.20;;
43088;SDS011;28709;52.030;5.652;2023-04-24T06:18:13;4.07;;;2.90;;
43088;SDS011;28709;52.030;5.652;2023-04-24T06:20:40;3.75;;;2.78;;
43088;SDS011;28709;52.030;5.652;2023-04-24T06:23:05;2.70;;;2.00;;
43088;SDS011;28709;52.030;5.652;2023-04-24T06:25:31;4.22;;;2.33;;
43088;SDS011;28709;52.030;5.652;2023-04-24T06:27:57;2.20;;;1.77;;
43088;SDS011;28709;52.030;5.652;2023-04-24T06:30:22;2.75;;;1.98;;
43088;SDS011;28709;52.030;5.652;2023-04-24T06:32:48;2.00;;;1.80;;
43088;SDS011;28709;52.030;5.652;2023-04-24T06:35:14;4.15;;;2.25;;
43088;SDS011;28709;52.030;5.652;2023-04-24T06:37:40;3.20;;;2.38;;
43088;SDS011;28709;52.030;5.652;2023-04-24T06:40:07;3.25;;;2.45;;
43088;SDS011;28709;52.030;5.652;2023-04-24T06:42:33;3.28;;;2.22;;
43088;SDS011;28709;52.030;5.652;2023-04-24T06:45:00;3.47;;;2.35;;
43088;SDS011;28709;52.030;5.652;2023-04-24T06:47:26;3.50;;;2.42;;
43088;SDS011;28709;52.030;5.652;2023-04-24T06:49:51;3.75;;;2.70;;
43088;SDS011;28709;52.030;5.652;2023-04-24T06:52:18;4.28;;;2.72;;
43088;SDS011;28709;52.030;5.652;2023-04-24T06:54:44;5.55;;;2.90;;
43088;SDS011;28709;52.030;5.652;2023-04-24T06:57:10;4.75;;;2.83;;
43088;SDS011;28709;52.030;5.652;2023-04-24T06:59:35;4.57;;;2.97;;
43088;SDS011;28709;52.030;5.652;2023-04-24T07:02:02;4.00;;;2.45;;
43088;SDS011;28709;52.030;5.652;2023-04-24T07:04:28;2.58;;;1.70;;
43088;SDS011;28709;52.030;5.652;2023-04-24T07:06:54;1.95;;;1.63;;
43088;SDS011;28709;52.030;5.652;2023-04-24T07:09:21;2.70;;;1.63;;
43088;SDS011;28709;52.030;5.652;2023-04-24T07:11:48;1.92;;;1.70;;
43088;SDS011;28709;52.030;5.652;2023-04-24T07:14:14;2.78;;;2.03;;
43088;SDS011;28709;52.030;5.652;2023-04-24T07:16:40;4.35;;;2.45;;
43088;SDS011;28709;52.030;5.652;2023-04-24T07:19:06;4.53;;;2.10;;
43088;SDS011;28709;52.030;5.652;2023-04-24T07:21:32;4.57;;;3.25;;
43088;SDS011;28709;52.030;5.652;2023-04-24T07:23:58;6.05;;;3.67;;
43088;SDS011;28709;52.030;5.652;2023-04-24T07:26:24;6.10;;;3.92;;
43088;SDS011;28709;52.030;5.652;2023-04-24T07:28:51;7.55;;;4.70;;
43088;SDS011;28709;52.030;5.652;2023-04-24T07:31:16;6.28;;;4.55;;
43088;SDS011;28709;52.030;5.652;2023-04-24T07:33:42;10.77;;;5.97;;
43088;SDS011;28709;52.030;5.652;2023-04-24T07:36:08;9.80;;;5.95;;
43088;SDS011;28709;52.030;5.652;2023-04-24T07:38:40;8.77;;;5.82;;
43088;SDS011;28709;52.030;5.652;2023-04-24T07:41:06;8.18;;;5.88;;
43088;SDS011;28709;52.030;5.652;2023-04-24T07:43:32;14.02;;;7.25;;
43088;SDS011;28709;52.030;5.652;2023-04-24T07:45:57;13.40;;;6.38;;
43088;SDS011;28709;52.030;5.652;2023-04-24T07:48:23;11.23;;;6.72;;
43088;SDS011;28709;52.030;5.652;2023-04-24T07:50:51;12.27;;;7.15;;
43088;SDS011;28709;52.030;5.652;2023-04-24T07:53:16;10.82;;;6.47;;
43088;SDS011;28709;52.030;5.652;2023-04-24T07:55:42;13.13;;;6.82;;
43088;SDS011;28709;52.030;5.652;2023-04-24T07:58:08;13.05;;;6.40;;
43088;SDS011;28709;52.030;5.652;2023-04-24T08:00:34;12.82;;;6.72;;
43088;SDS011;28709;52.030;5.652;2023-04-24T08:03:00;15.15;;;7.60;;
43088;SDS011;28709;52.030;5.652;2023-04-24T08:05:26;10.60;;;6.00;;
43088;SDS011;28709;52.030;5.652;2023-04-24T08:07:53;12.35;;;6.55;;
43088;SDS011;28709;52.030;5.652;2023-04-24T08:10:19;16.42;;;8.00;;
43088;SDS011;28709;52.030;5.652;2023-04-24T08:12:46;11.95;;;6.45;;
43088;SDS011;28709;52.030;5.652;2023-04-24T08:15:12;12.25;;;6.47;;
43088;SDS011;28709;52.030;5.652;2023-04-24T08:17:38;15.00;;;7.07;;
43088;SDS011;28709;52.030;5.652;2023-04-24T08:20:04;14.38;;;7.45;;
43088;SDS011;28709;52.030;5.652;2023-04-24T08:22:30;12.32;;;7.25;;
43088;SDS011;28709;52.030;5.652;2023-04-24T08:24:56;19.35;;;6.53;;
43088;SDS011;28709;52.030;5.652;2023-04-24T08:27:25;11.18;;;6.38;;
43088;SDS011;28709;52.030;5.652;2023-04-24T08:29:52;17.52;;;7.15;;
43088;SDS011;28709;52.030;5.652;2023-04-24T08:32:18;18.23;;;7.00;;
43088;SDS011;28709;52.030;5.652;2023-04-24T08:34:44;12.88;;;7.30;;
43088;SDS011;28709;52.030;5.652;2023-04-24T08:37:10;13.57;;;6.32;;
43088;SDS011;28709;52.030;5.652;2023-04-24T08:39:36;16.77;;;7.40;;
43088;SDS011;28709;52.030;5.652;2023-04-24T08:42:02;11.85;;;4.93;;
43088;SDS011;28709;52.030;5.652;2023-04-24T08:44:32;9.95;;;3.97;;
43088;SDS011;28709;52.030;5.652;2023-04-24T08:46:59;6.93;;;3.45;;
43088;SDS011;28709;52.030;5.652;2023-04-24T08:49:26;11.30;;;4.10;;
43088;SDS011;28709;52.030;5.652;2023-04-24T08:51:53;6.13;;;2.28;;
43088;SDS011;28709;52.030;5.652;2023-04-24T08:54:19;12.48;;;2.95;;
43088;SDS011;28709;52.030;5.652;2023-04-24T08:56:46;12.23;;;3.28;;
43088;SDS011;28709;52.030;5.652;2023-04-24T08:59:14;12.98;;;3.50;;
43088;SDS011;28709;52.030;5.652;2023-04-24T09:01:40;13.68;;;3.17;;
43088;SDS011;28709;52.030;5.652;2023-04-24T09:04:07;12.45;;;3.50;;
43088;SDS011;28709;52.030;5.652;2023-04-24T09:06:35;18.75;;;3.72;;
43088;SDS011;28709;52.030;5.652;2023-04-24T09:09:01;16.35;;;3.85;;
43088;SDS011;28709;52.030;5.652;2023-04-24T09:11:29;14.77;;;4.13;;
43088;SDS011;28709;52.030;5.652;2023-04-24T09:13:55;16.88;;;3.38;;
43088;SDS011;28709;52.030;5.652;2023-04-24T09:16:23;16.75;;;3.15;;
43088;SDS011;28709;52.030;5.652;2023-04-24T09:18:50;10.43;;;3.25;;
43088;SDS011;28709;52.030;5.652;2023-04-24T09:21:17;14.20;;;2.50;;
43088;SDS011;28709;52.030;5.652;2023-04-24T09:23:42;19.73;;;2.85;;
43088;SDS011;28709;52.030;5.652;2023-04-24T09:26:08;10.88;;;2.90;;
43088;SDS011;28709;52.030;5.652;2023-04-24T09:28:36;13.32;;;2.78;;
43088;SDS011;28709;52.030;5.652;2023-04-24T09:31:04;12.27;;;3.38;;
43088;SDS011;28709;52.030;5.652;2023-04-24T09:33:34;6.30;;;2.25;;
43088;SDS011;28709;52.030;5.652;2023-04-24T09:36:00;13.77;;;2.75;;
43088;SDS011;28709;52.030;5.652;2023-04-24T09:38:34;11.73;;;2.20;;
43088;SDS011;28709;52.030;5.652;2023-04-24T09:41:01;17.67;;;2.50;;
43088;SDS011;28709;52.030;5.652;2023-04-24T09:43:29;14.63;;;3.38;;
43088;SDS011;28709;52.030;5.652;2023-04-24T09:45:56;11.43;;;2.53;;
43088;SDS011;28709;52.030;5.652;2023-04-24T09:48:30;11.75;;;3.55;;
43088;SDS011;28709;52.030;5.652;2023-04-24T09:50:56;12.55;;;3.05;;
43088;SDS011;28709;52.030;5.652;2023-04-24T09:53:25;7.60;;;2.53;;
43088;SDS011;28709;52.030;5.652;2023-04-24T09:55:52;12.13;;;2.30;;
43088;SDS011;28709;52.030;5.652;2023-04-24T09:58:18;8.10;;;2.50;;
43088;SDS011;28709;52.030;5.652;2023-04-24T10:00:49;11.05;;;2.95;;
43088;SDS011;28709;52.030;5.652;2023-04-24T10:03:18;10.80;;;2.20;;
43088;SDS011;28709;52.030;5.652;2023-04-24T10:05:44;10.93;;;3.03;;
43088;SDS011;28709;52.030;5.652;2023-04-24T10:08:11;14.45;;;3.53;;
43088;SDS011;28709;52.030;5.652;2023-04-24T10:10:39;14.88;;;2.65;;
43088;SDS011;28709;52.030;5.652;2023-04-24T10:13:11;10.77;;;2.55;;
43088;SDS011;28709;52.030;5.652;2023-04-24T10:15:38;11.50;;;3.00;;
43088;SDS011;28709;52.030;5.652;2023-04-24T10:18:05;13.13;;;2.92;;
43088;SDS011;28709;52.030;5.652;2023-04-24T10:20:32;8.43;;;2.10;;
43088;SDS011;28709;52.030;5.652;2023-04-24T10:22:59;8.43;;;2.13;;
43088;SDS011;28709;52.030;5.652;2023-04-24T10:25:32;11.35;;;1.80;;
43088;SDS011;28709;52.030;5.652;2023-04-24T10:27:59;6.78;;;1.58;;
43088;SDS011;28709;52.030;5.652;2023-04-24T10:30:27;6.25;;;1.60;;
43088;SDS011;28709;52.030;5.652;2023-04-24T10:33:00;7.47;;;2.20;;
43088;SDS011;28709;52.030;5.652;2023-04-24T10:35:31;7.13;;;1.90;;
43088;SDS011;28709;52.030;5.652;2023-04-24T10:37:59;8.65;;;2.00;;
43088;SDS011;28709;52.030;5.652;2023-04-24T10:40:49;7.10;;;2.40;;
43088;SDS011;28709;52.030;5.652;2023-04-24T10:43:16;7.25;;;1.98;;
43088;SDS011;28709;52.030;5.652;2023-04-24T10:45:42;9.57;;;2.88;;
43088;SDS011;28709;52.030;5.652;2023-04-24T10:48:29;3.55;;;1.25;;
43088;SDS011;28709;52.030;5.652;2023-04-24T10:50:55;13.82;;;2.08;;
43088;SDS011;28709;52.030;5.652;2023-04-24T10:53:28;8.65;;;3.10;;
43088;SDS011;28709;52.030;5.652;2023-04-24T10:58:38;8.90;;;1.70;;
43088;SDS011;28709;52.030;5.652;2023-04-24T11:01:06;6.78;;;2.00;;
43088;SDS011;28709;52.030;5.652;2023-04-24T11:03:33;3.60;;;1.52;;
43088;SDS011;28709;52.030;5.652;2023-04-24T11:06:04;9.05;;;1.50;;
43088;SDS011;28709;52.030;5.652;2023-04-24T11:08:32;6.80;;;1.17;;
43088;SDS011;28709;52.030;5.652;2023-04-24T11:11:11;4.82;;;1.30;;
43088;SDS011;28709;52.030;5.652;2023-04-24T11:22:00;3.97;;;1.15;;
43088;SDS011;28709;52.030;5.652;2023-04-24T11:29:38;1.92;;;0.75;;
43088;SDS011;28709;52.030;5.652;2023-04-24T11:34:58;3.30;;;1.08;;
43088;SDS011;28709;52.030;5.652;2023-04-24T11:37:33;3.85;;;1.02;;
43088;SDS011;28709;52.030;5.652;2023-04-24T11:40:00;3.72;;;0.77;;
43088;SDS011;28709;52.030;5.652;2023-04-24T11:42:26;3.58;;;1.02;;
43088;SDS011;28709;52.030;5.652;2023-04-24T11:44:53;3.92;;;1.00;;
43088;SDS011;28709;52.030;5.652;2023-04-24T11:47:27;3.83;;;0.70;;
43088;SDS011;28709;52.030;5.652;2023-04-24T11:49:53;5.93;;;1.63;;
43088;SDS011;28709;52.030;5.652;2023-04-24T11:52:19;3.42;;;0.90;;
43088;SDS011;28709;52.030;5.652;2023-04-24T11:54:48;2.75;;;0.80;;
43088;SDS011;28709;52.030;5.652;2023-04-24T11:57:15;4.03;;;0.75;;
43088;SDS011;28709;52.030;5.652;2023-04-24T11:59:41;7.00;;;0.70;;
43088;SDS011;28709;52.030;5.652;2023-04-24T12:02:07;6.30;;;1.00;;
43088;SDS011;28709;52.030;5.652;2023-04-24T12:04:39;5.32;;;1.27;;
43088;SDS011;28709;52.030;5.652;2023-04-24T12:07:08;4.72;;;1.10;;
43088;SDS011;28709;52.030;5.652;2023-04-24T12:09:41;5.47;;;1.00;;
43088;SDS011;28709;52.030;5.652;2023-04-24T12:12:07;9.77;;;2.08;;
43088;SDS011;28709;52.030;5.652;2023-04-24T12:14:41;4.43;;;0.90;;
43088;SDS011;28709;52.030;5.652;2023-04-24T12:17:12;3.30;;;0.98;;
43088;SDS011;28709;52.030;5.652;2023-04-24T12:19:44;2.45;;;0.90;;
43088;SDS011;28709;52.030;5.652;2023-04-24T12:22:13;2.75;;;0.70;;
43088;SDS011;28709;52.030;5.652;2023-04-24T12:24:55;4.55;;;1.50;;
43088;SDS011;28709;52.030;5.652;2023-04-24T12:27:25;1.92;;;0.80;;
43088;SDS011;28709;52.030;5.652;2023-04-24T12:29:58;2.95;;;0.93;;
43088;SDS011;28709;52.030;5.652;2023-04-24T12:32:25;7.65;;;0.77;;
43088;SDS011;28709;52.030;5.652;2023-04-24T12:34:51;6.93;;;1.42;;
43088;SDS011;28709;52.030;5.652;2023-04-24T12:37:18;3.20;;;0.60;;
43088;SDS011;28709;52.030;5.652;2023-04-24T12:42:26;2.47;;;0.90;;
43088;SDS011;28709;52.030;5.652;2023-04-24T12:44:55;3.55;;;1.00;;
43088;SDS011;28709;52.030;5.652;2023-04-24T12:47:25;5.50;;;1.00;;
43088;SDS011;28709;52.030;5.652;2023-04-24T12:49:52;3.13;;;0.90;;
43088;SDS011;28709;52.030;5.652;2023-04-24T12:52:36;5.22;;;0.80;;
43088;SDS011;28709;52.030;5.652;2023-04-24T12:55:02;3.15;;;0.95;;
43088;SDS011;28709;52.030;5.652;2023-04-24T12:57:30;5.70;;;1.33;;
43088;SDS011;28709;52.030;5.652;2023-04-24T12:59:57;3.50;;;1.05;;
43088;SDS011;28709;52.030;5.652;2023-04-24T13:02:24;4.38;;;0.95;;
43088;SDS011;28709;52.030;5.652;2023-04-24T13:04:50;6.72;;;1.20;;
43088;SDS011;28709;52.030;5.652;2023-04-24T13:07:16;6.85;;;1.90;;
43088;SDS011;28709;52.030;5.652;2023-04-24T13:09:42;5.10;;;1.25;;
43088;SDS011;28709;52.030;5.652;2023-04-24T13:12:09;5.95;;;1.38;;
43088;SDS011;28709;52.030;5.652;2023-04-24T13:14:36;10.23;;;1.73;;
43088;SDS011;28709;52.030;5.652;2023-04-24T13:17:02;5.05;;;1.10;;
43088;SDS011;28709;52.030;5.652;2023-04-24T13:19:28;6.90;;;1.50;;
43088;SDS011;28709;52.030;5.652;2023-04-24T13:21:55;8.73;;;2.13;;
43088;SDS011;28709;52.030;5.652;2023-04-24T13:24:25;5.15;;;1.38;;
43088;SDS011;28709;52.030;5.652;2023-04-24T13:26:54;4.93;;;1.10;;
43088;SDS011;28709;52.030;5.652;2023-04-24T13:29:21;8.30;;;1.13;;
43088;SDS011;28709;52.030;5.652;2023-04-24T13:31:49;6.70;;;2.20;;
43088;SDS011;28709;52.030;5.652;2023-04-24T13:34:15;13.32;;;2.33;;
43088;SDS011;28709;52.030;5.652;2023-04-24T13:36:42;7.68;;;2.03;;
43088;SDS011;28709;52.030;5.652;2023-04-24T13:39:07;7.47;;;1.83;;
43088;SDS011;28709;52.030;5.652;2023-04-24T13:41:33;9.13;;;1.58;;
43088;SDS011;28709;52.030;5.652;2023-04-24T13:44:00;6.28;;;1.65;;
43088;SDS011;28709;52.030;5.652;2023-04-24T13:46:26;6.40;;;1.33;;
43088;SDS011;28709;52.030;5.652;2023-04-24T13:48:51;10.10;;;1.83;;
43088;SDS011;28709;52.030;5.652;2023-04-24T13:51:17;8.73;;;1.98;;
43088;SDS011;28709;52.030;5.652;2023-04-24T13:53:43;6.63;;;1.50;;
43088;SDS011;28709;52.030;5.652;2023-04-24T13:56:09;9.00;;;2.50;;
43088;SDS011;28709;52.030;5.652;2023-04-24T13:58:37;10.52;;;1.38;;
43088;SDS011;28709;52.030;5.652;2023-04-24T14:01:03;8.98;;;2.40;;
43088;SDS011;28709;52.030;5.652;2023-04-24T14:03:29;10.93;;;3.42;;
43088;SDS011;28709;52.030;5.652;2023-04-24T14:05:54;12.73;;;2.33;;
43088;SDS011;28709;52.030;5.652;2023-04-24T14:08:20;13.43;;;2.25;;
43088;SDS011;28709;52.030;5.652;2023-04-24T14:10:46;9.23;;;2.25;;
43088;SDS011;28709;52.030;5.652;2023-04-24T14:13:11;12.95;;;2.15;;
43088;SDS011;28709;52.030;5.652;2023-04-24T14:15:37;8.23;;;2.47;;
43088;SDS011;28709;52.030;5.652;2023-04-24T14:18:03;9.52;;;2.05;;
43088;SDS011;28709;52.030;5.652;2023-04-24T14:20:29;10.95;;;2.00;;
43088;SDS011;28709;52.030;5.652;2023-04-24T14:22:55;11.85;;;2.53;;
43088;SDS011;28709;52.030;5.652;2023-04-24T14:25:24;7.22;;;1.95;;
43088;SDS011;28709;52.030;5.652;2023-04-24T14:27:49;6.35;;;1.60;;
43088;SDS011;28709;52.030;5.652;2023-04-24T14:30:15;12.15;;;1.80;;
43088;SDS011;28709;52.030;5.652;2023-04-24T14:32:41;10.98;;;1.80;;
43088;SDS011;28709;52.030;5.652;2023-04-24T14:35:07;6.20;;;2.13;;
43088;SDS011;28709;52.030;5.652;2023-04-24T14:37:32;10.20;;;2.10;;
43088;SDS011;28709;52.030;5.652;2023-04-24T14:39:58;8.50;;;2.63;;
43088;SDS011;28709;52.030;5.652;2023-04-24T14:42:24;10.15;;;1.65;;
43088;SDS011;28709;52.030;5.652;2023-04-24T14:44:50;12.20;;;3.13;;
43088;SDS011;28709;52.030;5.652;2023-04-24T14:47:16;7.15;;;1.77;;
43088;SDS011;28709;52.030;5.652;2023-04-24T14:49:42;6.43;;;2.22;;
43088;SDS011;28709;52.030;5.652;2023-04-24T14:52:09;8.57;;;2.38;;
43088;SDS011;28709;52.030;5.652;2023-04-24T14:54:35;13.77;;;2.13;;
43088;SDS011;28709;52.030;5.652;2023-04-24T14:57:00;7.95;;;2.35;;
43088;SDS011;28709;52.030;5.652;2023-04-24T14:59:27;12.30;;;2.10;;
43088;SDS011;28709;52.030;5.652;2023-04-24T15:01:53;10.52;;;2.60;;